createdAt,value
2019-02-03T00:01:02.767Z,0.55
2019-02-03T00:03:32.123Z,0.48
2019-02-03T00:06:01.431Z,0.54
2019-02-03T00:08:30.783Z,0.46
2019-02-03T00:11:00.097Z,0.42
2019-02-03T00:13:31.227Z,0.42
2019-02-03T00:15:58.712Z,0.40
2019-02-03T00:18:28.017Z,0.32
2019-02-03T00:20:57.437Z,0.33
2019-02-03T00:23:26.797Z,0.20
2019-02-03T00:25:56.124Z,0.24
2019-02-03T00:28:25.443Z,0.23
2019-02-03T00:30:54.826Z,0.20
2019-02-03T00:33:24.222Z,0.22
2019-02-03T00:35:53.515Z,0.23
2019-02-03T00:38:24.479Z,0.23
2019-02-03T00:40:52.139Z,0.23
2019-02-03T00:43:21.405Z,0.20
2019-02-03T00:45:50.709Z,0.26
2019-02-03T00:48:20.104Z,0.21
2019-02-03T00:50:49.373Z,0.23
2019-02-03T00:53:18.760Z,0.25
2019-02-03T00:55:48.038Z,0.21
2019-02-03T00:58:17.394Z,0.21
2019-02-03T01:00:46.743Z,0.19
2019-02-03T01:03:16.045Z,0.20
2019-02-03T01:05:45.350Z,0.21
2019-02-03T01:08:14.699Z,0.27
2019-02-03T01:10:44.041Z,0.27
2019-02-03T01:13:13.351Z,0.32
2019-02-03T01:15:42.677Z,0.29
2019-02-03T01:18:11.945Z,0.24
2019-02-03T01:20:41.272Z,0.27
2019-02-03T01:23:10.607Z,0.26
2019-02-03T01:25:39.949Z,0.24
2019-02-03T01:28:09.535Z,0.27
2019-02-03T01:30:38.887Z,0.32
2019-02-03T01:33:08.201Z,0.34
2019-02-03T01:35:37.457Z,0.33
2019-02-03T01:38:06.758Z,0.33
2019-02-03T01:40:36.071Z,0.30
2019-02-03T01:43:05.413Z,0.27
2019-02-03T01:45:34.677Z,0.25
2019-02-03T01:48:04.002Z,0.29
2019-02-03T01:50:33.304Z,0.26
2019-02-03T01:53:02.648Z,0.30
2019-02-03T01:55:31.868Z,0.33
2019-02-03T01:58:01.216Z,0.32
2019-02-03T02:00:30.524Z,0.35
2019-02-03T02:02:59.884Z,0.37
2019-02-03T02:05:29.213Z,0.46
2019-02-03T02:07:58.590Z,0.50
2019-02-03T02:10:28.045Z,0.45
2019-02-03T02:12:57.396Z,0.42
2019-02-03T02:15:26.727Z,0.45
2019-02-03T02:17:56.101Z,0.42
2019-02-03T02:20:28.813Z,0.41
2019-02-03T02:22:58.206Z,0.42
2019-02-03T02:25:27.531Z,0.44
2019-02-03T02:27:56.842Z,0.42
2019-02-03T02:30:26.476Z,0.40
2019-02-03T02:32:55.731Z,0.42
2019-02-03T02:35:25.044Z,0.34
2019-02-03T02:38:05.696Z,0.41
2019-02-03T02:40:24.449Z,0.36
2019-02-03T02:42:53.894Z,0.36
2019-02-03T02:45:23.168Z,0.34
2019-02-03T02:47:52.479Z,0.38
2019-02-03T02:50:30.560Z,0.35
2019-02-03T02:52:59.963Z,0.40
2019-02-03T02:55:29.287Z,0.39
2019-02-03T02:57:58.529Z,0.39
2019-02-03T03:00:27.869Z,0.45
2019-02-03T03:02:57.147Z,0.43
2019-02-03T03:05:26.415Z,0.42
2019-02-03T03:07:55.639Z,0.44
2019-02-03T03:10:24.932Z,0.47
2019-02-03T03:12:54.270Z,0.46
2019-02-03T03:15:23.534Z,0.45
2019-02-03T03:17:52.873Z,0.46
2019-02-03T03:20:22.188Z,0.45
2019-02-03T03:22:51.471Z,0.44
2019-02-03T03:25:20.933Z,0.43
2019-02-03T03:27:50.199Z,0.47
2019-02-03T03:30:27.194Z,0.48
2019-02-03T03:32:56.276Z,0.45
2019-02-03T03:35:25.698Z,0.44
2019-02-03T03:37:54.933Z,0.44
2019-02-03T03:40:28.549Z,0.43
2019-02-03T03:42:58.049Z,0.47
2019-02-03T03:45:27.237Z,0.47
2019-02-03T03:47:56.575Z,0.47
2019-02-03T03:50:25.904Z,0.45
2019-02-03T03:52:55.236Z,0.40
2019-02-03T03:55:24.765Z,0.44
2019-02-03T03:57:54.193Z,0.45
2019-02-03T04:00:24.981Z,0.41
2019-02-03T04:02:54.301Z,0.42
2019-02-03T04:05:23.697Z,0.39
2019-02-03T04:07:53.100Z,0.43
2019-02-03T04:10:23.332Z,0.41
2019-02-03T04:12:52.687Z,0.34
2019-02-03T04:15:21.948Z,0.33
2019-02-03T04:17:51.342Z,0.33
2019-02-03T04:20:25.552Z,0.32
2019-02-03T04:22:54.979Z,0.31
2019-02-03T04:25:24.341Z,0.29
2019-02-03T04:27:53.647Z,0.30
2019-02-03T04:30:23.708Z,0.29
2019-02-03T04:32:53.068Z,0.27
2019-02-03T04:35:22.442Z,0.25
2019-02-03T04:37:51.699Z,0.29
2019-02-03T04:40:21.723Z,0.28
2019-02-03T04:42:51.253Z,0.34
2019-02-03T04:45:22.796Z,0.32
2019-02-03T04:47:49.886Z,0.25
2019-02-03T04:50:20.410Z,0.29
2019-02-03T04:52:49.741Z,0.24
2019-02-03T04:55:19.471Z,0.28
2019-02-03T04:57:48.717Z,0.34
2019-02-03T05:00:24.826Z,0.35
2019-02-03T05:02:54.133Z,0.34
2019-02-03T05:05:23.435Z,0.33
2019-02-03T05:07:52.710Z,0.25
2019-02-03T05:10:22.005Z,0.25
2019-02-03T05:12:51.279Z,0.20
2019-02-03T05:15:22.683Z,0.18
2019-02-03T05:17:52.053Z,0.23
2019-02-03T05:20:23.642Z,0.19
2019-02-03T05:22:52.923Z,0.17
2019-02-03T05:25:22.975Z,0.14
2019-02-03T05:27:52.237Z,0.13
2019-02-03T05:30:32.611Z,0.06
2019-02-03T05:33:01.903Z,-0.01
2019-02-03T05:35:31.219Z,0.01
2019-02-03T05:38:00.570Z,-0.07
2019-02-03T05:40:29.759Z,-0.10
2019-02-03T05:42:59.103Z,-0.12
2019-02-03T05:45:28.426Z,-0.18
2019-02-03T05:47:57.735Z,-0.20
2019-02-03T05:50:26.999Z,-0.26
2019-02-03T05:52:56.334Z,-0.26
2019-02-03T05:55:25.711Z,-0.31
2019-02-03T05:57:54.999Z,-0.37
2019-02-03T06:00:30.807Z,-0.36
2019-02-03T06:03:00.097Z,-0.36
2019-02-03T06:05:29.356Z,-0.31
2019-02-03T06:07:58.649Z,-0.34
2019-02-03T06:10:28.081Z,-0.32
2019-02-03T06:12:57.425Z,-0.33
2019-02-03T06:15:26.677Z,-0.33
2019-02-03T06:17:55.987Z,-0.39
2019-02-03T06:20:25.329Z,-0.38
2019-02-03T06:22:54.604Z,-0.39
2019-02-03T06:25:23.888Z,-0.43
2019-02-03T06:27:53.199Z,-0.47
2019-02-03T06:31:14.729Z,-0.50
2019-02-03T06:33:46.913Z,-0.47
2019-02-03T06:36:16.817Z,-0.55
2019-02-03T06:38:46.138Z,-0.52
2019-02-03T06:41:15.492Z,-0.48
2019-02-03T06:43:44.773Z,-0.50
2019-02-03T06:46:42.123Z,-0.45
2019-02-03T06:49:31.481Z,-0.42
2019-02-03T06:52:00.739Z,-0.39
2019-02-03T06:54:30.025Z,-0.35
2019-02-03T06:56:59.305Z,-0.32
2019-02-03T06:59:28.595Z,-0.33
2019-02-03T07:01:58.003Z,-0.31
2019-02-03T07:04:27.356Z,-0.27
2019-02-03T07:06:56.618Z,-0.27
2019-02-03T07:09:25.957Z,-0.24
2019-02-03T07:12:00.659Z,-0.25
2019-02-03T07:14:29.949Z,-0.16
2019-02-03T07:16:59.246Z,-0.18
2019-02-03T07:19:28.581Z,-0.17
2019-02-03T07:21:57.965Z,-0.16
2019-02-03T07:24:27.267Z,-0.15
2019-02-03T07:26:56.567Z,-0.11
2019-02-03T07:29:25.926Z,-0.15
2019-02-03T07:31:55.268Z,-0.10
2019-02-03T07:34:27.866Z,-0.11
2019-02-03T07:36:57.102Z,-0.07
2019-02-03T07:39:26.362Z,-0.12
2019-02-03T07:41:55.779Z,-0.17
2019-02-03T07:44:25.417Z,-0.17
2019-02-03T07:46:54.699Z,-0.17
2019-02-03T07:49:24.147Z,-0.17
2019-02-03T07:51:53.410Z,-0.17
2019-02-03T07:54:22.685Z,-0.19
2019-02-03T07:56:52.100Z,-0.21
2019-02-03T07:59:21.602Z,-0.21
2019-02-03T08:01:51.104Z,-0.19
2019-02-03T08:04:20.387Z,-0.18
2019-02-03T08:06:49.734Z,-0.23
2019-02-03T08:09:19.003Z,-0.14
2019-02-03T08:11:48.402Z,-0.16
2019-02-03T08:14:17.826Z,-0.16
2019-02-03T08:16:47.171Z,-0.06
2019-02-03T08:19:16.569Z,-0.09
2019-02-03T08:21:46.010Z,-0.10
2019-02-03T08:24:15.380Z,0.01
2019-02-03T08:26:44.796Z,0.08
2019-02-03T08:29:14.847Z,0.04
2019-02-03T08:31:43.479Z,0.10
2019-02-03T08:34:12.970Z,0.06
2019-02-03T08:36:42.370Z,0.11
2019-02-03T08:39:11.659Z,0.16
2019-02-03T08:41:41.068Z,0.28
2019-02-03T08:44:10.569Z,0.32
2019-02-03T08:46:39.829Z,0.33
2019-02-03T08:49:09.142Z,0.32
2019-02-03T08:51:38.403Z,0.43
2019-02-03T08:54:07.840Z,0.39
2019-02-03T08:56:37.075Z,0.36
2019-02-03T08:59:06.470Z,0.39
2019-02-03T09:01:35.738Z,0.42
2019-02-03T09:04:05.357Z,0.41
2019-02-03T09:06:34.745Z,0.44
2019-02-03T09:09:06.986Z,0.50
2019-02-03T09:11:36.328Z,0.59
2019-02-03T09:14:05.742Z,0.60
2019-02-03T09:16:35.022Z,0.53
2019-02-03T09:19:04.332Z,0.58
2019-02-03T09:21:33.627Z,0.61
2019-02-03T09:24:02.927Z,0.66
2019-02-03T09:26:32.343Z,0.80
2019-02-03T09:29:01.651Z,0.81
2019-02-03T09:31:31.055Z,0.95
2019-02-03T09:34:00.359Z,1.08
2019-02-03T09:36:29.745Z,1.10
2019-02-03T09:38:59.164Z,1.15
2019-02-03T09:41:28.435Z,1.28
2019-02-03T09:43:57.865Z,1.26
2019-02-03T09:46:27.155Z,1.31
2019-02-03T09:48:56.629Z,1.36
2019-02-03T09:51:25.962Z,1.37
2019-02-03T09:53:55.237Z,1.53
2019-02-03T09:56:24.623Z,1.47
2019-02-03T09:58:53.952Z,1.39
2019-02-03T10:01:23.290Z,1.38
2019-02-03T10:03:52.663Z,1.53
2019-02-03T10:06:22.025Z,1.71
2019-02-03T10:08:51.285Z,1.67
2019-02-03T10:11:22.845Z,1.63
2019-02-03T10:13:50.071Z,1.73
2019-02-03T10:16:19.358Z,1.80
2019-02-03T10:18:48.700Z,1.95
2019-02-03T10:21:18.130Z,1.99
2019-02-03T10:23:47.437Z,2.06
2019-02-03T10:26:16.797Z,2.10
2019-02-03T10:28:46.632Z,2.02
2019-02-03T10:31:15.433Z,1.95
2019-02-03T10:33:44.730Z,2.09
2019-02-03T10:36:14.097Z,2.12
2019-02-03T10:38:43.358Z,2.08
2019-02-03T10:41:23.459Z,2.14
2019-02-03T10:43:42.096Z,2.25
2019-02-03T10:46:11.519Z,2.40
2019-02-03T10:48:40.871Z,2.39
2019-02-03T10:51:10.424Z,2.41
2019-02-03T10:53:39.721Z,2.42
2019-02-03T10:56:09.024Z,2.30
2019-02-03T10:58:38.301Z,2.43
2019-02-03T11:01:07.883Z,2.38
2019-02-03T11:03:37.249Z,2.28
2019-02-03T11:06:08.511Z,2.41
2019-02-03T11:08:37.931Z,2.62
2019-02-03T11:11:07.645Z,2.56
2019-02-03T11:13:36.993Z,2.81
2019-02-03T11:16:06.402Z,2.80
2019-02-03T11:18:35.708Z,2.79
2019-02-03T11:21:04.990Z,2.77
2019-02-03T11:23:34.296Z,2.80
2019-02-03T11:26:03.609Z,2.99
2019-02-03T11:28:32.982Z,2.84
2019-02-03T11:31:04.973Z,3.04
2019-02-03T11:33:35.054Z,3.19
2019-02-03T11:36:04.431Z,3.19
2019-02-03T11:38:33.701Z,3.06
2019-02-03T11:41:03.541Z,3.24
2019-02-03T11:43:32.816Z,3.33
2019-02-03T11:46:02.139Z,3.37
2019-02-03T11:48:31.411Z,3.72
2019-02-03T11:51:00.724Z,4.34
2019-02-03T11:53:30.085Z,4.36
2019-02-03T11:55:59.443Z,4.16
2019-02-03T11:58:28.723Z,4.14
2019-02-03T12:00:58.537Z,4.36
2019-02-03T12:03:27.833Z,4.34
2019-02-03T12:05:57.163Z,4.15
2019-02-03T12:08:26.527Z,4.71
2019-02-03T12:10:55.987Z,4.87
2019-02-03T12:13:25.347Z,4.85
2019-02-03T12:15:54.645Z,4.87
2019-02-03T12:18:24.245Z,4.49
2019-02-03T12:20:53.587Z,4.67
2019-02-03T12:23:22.899Z,4.57
2019-02-03T12:25:52.199Z,4.59
2019-02-03T12:28:21.548Z,4.42
2019-02-03T12:30:50.855Z,4.59
2019-02-03T12:33:20.265Z,4.80
2019-02-03T12:35:49.571Z,4.80
2019-02-03T12:38:18.836Z,4.57
2019-02-03T12:40:48.095Z,4.71
2019-02-03T12:43:17.507Z,5.00
2019-02-03T12:45:46.850Z,5.27
2019-02-03T12:48:16.210Z,5.01
2019-02-03T12:50:45.577Z,4.74
2019-02-03T12:53:14.851Z,5.13
2019-02-03T12:55:45.012Z,5.51
2019-02-03T12:58:14.097Z,5.55
2019-02-03T13:00:43.378Z,5.40
2019-02-03T13:03:12.871Z,5.49
2019-02-03T13:05:42.163Z,5.30
2019-02-03T13:08:11.501Z,5.28
2019-02-03T13:10:40.800Z,5.62
2019-02-03T13:13:10.427Z,5.69
2019-02-03T13:15:50.771Z,6.41
2019-02-03T13:18:20.076Z,6.03
2019-02-03T13:20:49.346Z,6.03
2019-02-03T13:23:18.711Z,5.76
2019-02-03T13:25:48.179Z,4.86
2019-02-03T13:28:17.675Z,4.86
2019-02-03T13:30:48.911Z,4.57
2019-02-03T13:33:18.450Z,4.18
2019-02-03T13:35:47.755Z,4.20
2019-02-03T13:38:17.025Z,4.18
2019-02-03T13:40:46.308Z,4.00
2019-02-03T13:43:15.649Z,4.08
2019-02-03T13:45:45.263Z,4.16
2019-02-03T13:48:14.227Z,4.26
2019-02-03T13:50:43.574Z,4.34
2019-02-03T13:53:12.826Z,4.41
2019-02-03T13:55:42.130Z,4.39
2019-02-03T13:58:11.512Z,4.42
2019-02-03T14:00:43.226Z,4.40
2019-02-03T14:03:12.491Z,4.23
2019-02-03T14:05:41.785Z,4.26
2019-02-03T14:08:11.092Z,4.30
2019-02-03T14:10:40.389Z,4.46
2019-02-03T14:13:09.871Z,4.34
2019-02-03T14:15:39.198Z,4.72
2019-02-03T14:18:08.611Z,5.58
2019-02-03T14:20:37.933Z,6.05
2019-02-03T14:23:07.628Z,6.45
2019-02-03T14:25:36.946Z,6.56
2019-02-03T14:28:06.231Z,6.45
2019-02-03T14:30:41.551Z,6.03
2019-02-03T14:33:10.503Z,5.36
2019-02-03T14:35:39.812Z,5.19
2019-02-03T14:38:09.263Z,4.85
2019-02-03T14:40:38.571Z,4.51
2019-02-03T14:43:07.876Z,4.56
2019-02-03T14:45:37.223Z,4.54
2019-02-03T14:48:06.971Z,4.44
2019-02-03T14:50:36.287Z,4.33
2019-02-03T14:53:08.392Z,4.18
2019-02-03T14:55:39.330Z,4.27
2019-02-03T14:58:08.920Z,4.10
2019-02-03T15:00:40.819Z,3.94
2019-02-03T15:03:18.295Z,3.93
2019-02-03T15:05:47.533Z,3.79
2019-02-03T15:08:16.890Z,3.66
2019-02-03T15:10:46.215Z,3.67
2019-02-03T15:13:17.634Z,3.62
2019-02-03T15:15:47.071Z,3.57
2019-02-03T15:18:16.647Z,3.58
2019-02-03T15:20:45.916Z,3.57
2019-02-03T15:23:15.321Z,3.51
2019-02-03T15:25:44.721Z,3.48
2019-02-03T15:28:15.488Z,3.44
2019-02-03T15:30:47.141Z,3.42
2019-02-03T15:33:16.423Z,3.37
2019-02-03T15:35:45.725Z,3.31
2019-02-03T15:38:15.053Z,3.39
2019-02-03T15:40:44.361Z,3.35
2019-02-03T15:43:24.667Z,3.34
2019-02-03T15:45:42.997Z,3.31
2019-02-03T15:48:12.348Z,3.28
2019-02-03T15:50:41.679Z,3.28
2019-02-03T15:53:11.170Z,3.27
2019-02-03T15:55:40.432Z,3.25
2019-02-03T15:58:11.029Z,3.27
2019-02-03T16:00:42.952Z,3.23
2019-02-03T16:03:12.485Z,3.22
2019-02-03T16:05:41.787Z,3.26
2019-02-03T16:08:14.383Z,3.23
2019-02-03T16:10:43.730Z,3.22
2019-02-03T16:13:13.038Z,3.25
2019-02-03T16:15:42.332Z,3.23
2019-02-03T16:18:11.969Z,3.21
2019-02-03T16:20:45.993Z,3.24
2019-02-03T16:23:17.431Z,3.23
2019-02-03T16:25:46.811Z,3.24
2019-02-03T16:28:16.157Z,3.19
2019-02-03T16:30:45.664Z,3.12
2019-02-03T16:33:15.220Z,3.08
2019-02-03T16:35:44.704Z,3.05
2019-02-03T16:38:22.555Z,3.06
2019-02-03T16:40:43.407Z,3.01
2019-02-03T16:43:12.785Z,3.01
2019-02-03T16:45:44.803Z,2.95
2019-02-03T16:48:14.489Z,2.93
2019-02-03T16:50:43.822Z,2.93
2019-02-03T16:53:13.215Z,2.90
2019-02-03T16:55:42.531Z,2.87
2019-02-03T16:58:11.897Z,2.85
2019-02-03T17:00:41.242Z,2.83
2019-02-03T17:03:10.596Z,2.80
2019-02-03T17:05:39.912Z,2.79
2019-02-03T17:08:09.288Z,2.74
2019-02-03T17:10:38.674Z,2.66
2019-02-03T17:13:08.055Z,2.61
2019-02-03T17:15:44.679Z,2.58
2019-02-03T17:18:14.007Z,2.52
2019-02-03T17:20:43.338Z,2.50
2019-02-03T17:23:12.685Z,2.42
2019-02-03T17:25:44.722Z,2.33
2019-02-03T17:28:14.195Z,2.27
2019-02-03T17:30:43.475Z,2.22
2019-02-03T17:33:13.892Z,2.18
2019-02-03T17:35:54.059Z,2.09
2019-02-03T17:38:12.436Z,2.07
2019-02-03T17:40:41.783Z,2.02
2019-02-03T17:43:11.479Z,1.95
2019-02-03T17:45:42.907Z,1.89
2019-02-03T17:48:12.230Z,1.83
2019-02-03T17:50:41.563Z,1.78
2019-02-03T17:53:10.885Z,1.73
2019-02-03T17:55:40.281Z,1.69
2019-02-03T17:58:09.669Z,1.73
2019-02-03T18:00:41.168Z,1.73
2019-02-03T18:03:10.535Z,1.69
2019-02-03T18:05:39.888Z,1.62
2019-02-03T18:08:09.665Z,1.54
2019-02-03T18:10:39.035Z,1.45
2019-02-03T18:13:08.397Z,1.39
2019-02-03T18:15:37.824Z,1.30
2019-02-03T18:18:09.176Z,1.24
2019-02-03T18:20:38.938Z,1.29
2019-02-03T18:23:08.285Z,1.23
2019-02-03T18:25:37.656Z,1.24
2019-02-03T18:28:07.330Z,1.18
2019-02-03T18:30:37.084Z,1.18
2019-02-03T18:33:07.482Z,1.16
2019-02-03T18:35:36.821Z,1.16
2019-02-03T18:38:07.831Z,1.12
2019-02-03T18:40:37.189Z,1.11
2019-02-03T18:43:06.482Z,1.08
2019-02-03T18:45:35.765Z,1.07
2019-02-03T18:48:05.356Z,1.10
2019-02-03T18:50:34.789Z,1.15
2019-02-03T18:53:04.116Z,1.16
2019-02-03T18:55:35.324Z,1.17
2019-02-03T18:58:04.657Z,1.24
2019-02-03T19:00:36.190Z,1.26
2019-02-03T19:03:06.601Z,1.23
2019-02-03T19:05:37.186Z,1.22
2019-02-03T19:08:06.516Z,1.22
2019-02-03T19:10:35.907Z,1.25
2019-02-03T19:13:06.491Z,1.24
2019-02-03T19:15:35.795Z,1.28
2019-02-03T19:18:05.680Z,1.26
2019-02-03T19:20:36.333Z,1.28
2019-02-03T19:23:06.889Z,1.27
2019-02-03T19:25:36.316Z,1.28
2019-02-03T19:28:05.822Z,1.21
2019-02-03T19:30:35.098Z,1.15
2019-02-03T19:33:04.601Z,1.15
2019-02-03T19:35:34.009Z,1.09
2019-02-03T19:38:06.573Z,1.06
2019-02-03T19:40:32.965Z,1.00
2019-02-03T19:43:02.326Z,1.00
2019-02-03T19:45:31.719Z,0.92
2019-02-03T19:48:01.153Z,0.88
2019-02-03T19:50:32.456Z,0.89
2019-02-03T19:53:01.815Z,0.83
2019-02-03T19:55:31.065Z,0.77
2019-02-03T19:58:00.373Z,0.72
2019-02-03T20:00:34.428Z,0.71
2019-02-03T20:03:03.800Z,0.68
2019-02-03T20:05:33.191Z,0.66
2019-02-03T20:08:02.498Z,0.66
2019-02-03T20:10:31.800Z,0.69
2019-02-03T20:13:01.902Z,0.69
2019-02-03T20:15:30.539Z,0.64
2019-02-03T20:17:59.879Z,0.62
2019-02-03T20:20:33.159Z,0.60
2019-02-03T20:23:02.532Z,0.53
2019-02-03T20:25:31.904Z,0.47
2019-02-03T20:28:01.231Z,0.42
2019-02-03T20:30:38.866Z,0.37
2019-02-03T20:33:05.771Z,0.32
2019-02-03T20:35:35.074Z,0.25
2019-02-03T20:38:04.397Z,0.21
2019-02-03T20:40:35.501Z,0.17
2019-02-03T20:43:04.941Z,0.16
2019-02-03T20:45:36.218Z,0.18
2019-02-03T20:48:03.913Z,0.17
2019-02-03T20:50:33.221Z,0.18
2019-02-03T20:53:02.488Z,0.26
2019-02-03T20:55:31.838Z,0.34
2019-02-03T20:58:01.112Z,0.32
2019-02-03T21:00:32.099Z,0.30
2019-02-03T21:03:01.491Z,0.29
2019-02-03T21:05:30.804Z,0.29
2019-02-03T21:08:00.196Z,0.27
2019-02-03T21:10:38.285Z,0.26
2019-02-03T21:13:11.789Z,0.21
2019-02-03T21:15:37.383Z,0.17
2019-02-03T21:18:07.941Z,0.14
2019-02-03T21:20:36.082Z,0.16
2019-02-03T21:23:05.435Z,0.14
2019-02-03T21:25:34.676Z,0.11
2019-02-03T21:28:04.044Z,0.16
2019-02-03T21:30:35.386Z,0.15
2019-02-03T21:33:04.950Z,0.13
2019-02-03T21:35:34.466Z,0.22
2019-02-03T21:38:07.110Z,0.29
2019-02-03T21:40:36.413Z,0.26
2019-02-03T21:43:05.767Z,0.36
2019-02-03T21:45:44.477Z,0.33
2019-02-03T21:48:05.176Z,0.31
2019-02-03T21:50:34.579Z,0.35
2019-02-03T21:53:03.881Z,0.36
2019-02-03T21:55:38.358Z,0.36
2019-02-03T21:58:07.512Z,0.37
2019-02-03T22:00:36.759Z,0.39
2019-02-03T22:03:06.112Z,0.39
2019-02-03T22:05:35.682Z,0.40
2019-02-03T22:08:05.295Z,0.47
2019-02-03T22:10:36.448Z,0.50
2019-02-03T22:13:06.070Z,0.53
2019-02-03T22:15:35.453Z,0.54
2019-02-03T22:18:04.787Z,0.54
2019-02-03T22:20:34.162Z,0.49
2019-02-03T22:23:03.710Z,0.42
2019-02-03T22:25:33.187Z,0.38
2019-02-03T22:28:02.375Z,0.33
2019-02-03T22:30:36.373Z,0.30
2019-02-03T22:33:05.975Z,0.27
2019-02-03T22:35:37.577Z,0.25
2019-02-03T22:38:07.767Z,0.24
2019-02-03T22:40:37.087Z,0.28
2019-02-03T22:43:06.470Z,0.24
2019-02-03T22:45:35.810Z,0.33
2019-02-03T22:48:05.998Z,0.27
2019-02-03T22:50:35.302Z,0.21
2019-02-03T22:53:04.572Z,0.20
2019-02-03T22:55:33.913Z,0.19
2019-02-03T22:58:03.197Z,0.16
2019-02-03T23:01:05.157Z,0.15
2019-02-03T23:03:46.817Z,0.12
2019-02-03T23:06:16.077Z,0.11
2019-02-03T23:08:45.457Z,0.05
2019-02-03T23:11:14.778Z,0.01
2019-02-03T23:13:44.098Z,-0.02
2019-02-03T23:16:18.257Z,-0.01
2019-02-03T23:18:42.829Z,-0.07
2019-02-03T23:21:12.082Z,-0.10
2019-02-03T23:23:41.366Z,-0.15
2019-02-03T23:26:10.642Z,-0.16
2019-02-03T23:28:43.146Z,-0.19
2019-02-03T23:31:12.414Z,-0.18
2019-02-03T23:33:41.735Z,-0.16
2019-02-03T23:36:11.075Z,-0.18
2019-02-03T23:38:43.360Z,-0.20
2019-02-03T23:41:12.745Z,-0.23
2019-02-03T23:43:42.021Z,-0.26
2019-02-03T23:46:13.337Z,-0.29
2019-02-03T23:48:40.725Z,-0.23
2019-02-03T23:51:10.053Z,-0.28
2019-02-03T23:53:39.435Z,-0.28
2019-02-03T23:56:08.754Z,-0.32
2019-02-03T23:58:38.028Z,-0.34
